createdAt,value
2017-10-13T00:01:31.918Z,12.40
2017-10-13T00:04:00.379Z,12.40
2017-10-13T00:06:28.778Z,12.30
2017-10-13T00:08:57.163Z,12.30
2017-10-13T00:11:25.646Z,12.30
2017-10-13T00:13:54.034Z,12.30
2017-10-13T00:16:23.188Z,12.20
2017-10-13T00:18:51.598Z,12.20
2017-10-13T00:21:19.991Z,12.20
2017-10-13T00:23:48.371Z,12.30
2017-10-13T00:26:17.222Z,12.30
2017-10-13T00:28:45.603Z,12.30
2017-10-13T00:31:13.983Z,12.30
2017-10-13T00:33:42.416Z,12.20
2017-10-13T00:36:10.807Z,12.30
2017-10-13T00:38:39.212Z,12.30
2017-10-13T00:41:07.893Z,12.30
2017-10-13T00:43:36.279Z,12.30
2017-10-13T00:46:04.683Z,12.30
2017-10-13T00:48:33.094Z,12.30
2017-10-13T00:51:01.491Z,12.20
2017-10-13T00:53:29.868Z,12.20
2017-10-13T00:55:58.307Z,12.10
2017-10-13T00:58:27.539Z,12.00
2017-10-13T01:00:56.103Z,12.00
2017-10-13T01:03:25.286Z,12.00
2017-10-13T01:05:54.448Z,12.00
2017-10-13T01:08:22.830Z,11.90
2017-10-13T01:10:51.259Z,12.00
2017-10-13T01:13:19.638Z,11.90
2017-10-13T01:15:48.016Z,11.90
2017-10-13T01:18:16.451Z,11.80
2017-10-13T01:20:44.855Z,11.70
2017-10-13T01:23:13.259Z,11.60
2017-10-13T01:25:41.683Z,11.60
2017-10-13T01:28:10.087Z,11.60
2017-10-13T01:30:39.239Z,11.50
2017-10-13T01:33:08.312Z,11.40
2017-10-13T01:35:36.688Z,11.40
2017-10-13T01:38:05.092Z,11.30
2017-10-13T01:40:33.505Z,11.30
2017-10-13T01:43:01.902Z,11.30
2017-10-13T01:45:31.044Z,11.20
2017-10-13T01:47:59.458Z,11.20
2017-10-13T01:50:27.858Z,11.10
2017-10-13T01:52:57.023Z,11.10
2017-10-13T01:55:26.362Z,11.10
2017-10-13T01:57:55.515Z,11.00
2017-10-13T02:00:23.910Z,11.00
2017-10-13T02:02:52.399Z,10.90
2017-10-13T02:05:20.820Z,10.80
2017-10-13T02:07:49.195Z,10.90
2017-10-13T02:10:17.607Z,10.80
2017-10-13T02:12:45.992Z,10.80
2017-10-13T02:15:14.425Z,10.90
2017-10-13T02:17:42.861Z,10.90
2017-10-13T02:20:11.273Z,10.90
2017-10-13T02:22:40.410Z,10.80
2017-10-13T02:25:08.826Z,10.80
2017-10-13T02:27:37.197Z,10.90
2017-10-13T02:30:05.584Z,10.80
2017-10-13T02:32:34.779Z,10.80
2017-10-13T02:35:03.154Z,10.80
2017-10-13T02:37:31.536Z,10.80
2017-10-13T02:39:59.933Z,10.80
2017-10-13T02:42:29.093Z,10.70
2017-10-13T02:44:57.511Z,10.70
2017-10-13T02:47:26.713Z,10.70
2017-10-13T02:49:55.162Z,10.70
2017-10-13T02:52:24.303Z,10.60
2017-10-13T02:54:52.718Z,10.60
2017-10-13T02:57:21.113Z,10.60
2017-10-13T02:59:49.490Z,10.60
2017-10-13T03:02:18.076Z,10.50
2017-10-13T03:04:46.459Z,10.60
2017-10-13T03:07:14.852Z,10.60
2017-10-13T03:09:44.298Z,10.60
2017-10-13T03:12:12.673Z,10.50
2017-10-13T03:14:41.063Z,10.60
2017-10-13T03:17:09.754Z,10.60
2017-10-13T03:19:38.146Z,10.50
2017-10-13T03:22:06.534Z,10.40
2017-10-13T03:24:34.971Z,10.50
2017-10-13T03:27:03.362Z,10.50
2017-10-13T03:29:31.744Z,10.50
2017-10-13T03:32:01.123Z,10.60
2017-10-13T03:34:29.504Z,10.60
2017-10-13T03:36:57.885Z,10.60
2017-10-13T03:39:26.886Z,10.60
2017-10-13T03:41:55.263Z,10.50
2017-10-13T03:44:23.652Z,10.50
2017-10-13T03:46:52.111Z,10.50
2017-10-13T03:49:20.514Z,10.50
2017-10-13T03:51:48.893Z,10.40
2017-10-13T03:54:17.315Z,10.50
2017-10-13T03:56:46.464Z,10.40
2017-10-13T03:59:14.925Z,10.40
2017-10-13T04:01:43.378Z,10.30
2017-10-13T04:04:12.776Z,10.30
2017-10-13T04:06:41.922Z,10.30
2017-10-13T04:09:10.331Z,10.30
2017-10-13T04:11:38.730Z,10.40
2017-10-13T04:14:07.872Z,10.30
2017-10-13T04:16:36.281Z,10.30
2017-10-13T04:19:04.665Z,10.30
2017-10-13T04:21:33.047Z,10.20
2017-10-13T04:24:01.453Z,10.10
2017-10-13T04:26:30.600Z,10.20
2017-10-13T04:28:58.975Z,10.20
2017-10-13T04:31:27.964Z,10.30
2017-10-13T04:33:57.293Z,10.30
2017-10-13T04:36:26.283Z,10.30
2017-10-13T04:38:56.295Z,10.30
2017-10-13T04:41:25.249Z,10.30
2017-10-13T04:43:54.195Z,10.30
2017-10-13T04:46:24.100Z,10.30
2017-10-13T04:48:53.089Z,10.20
2017-10-13T04:51:21.473Z,10.20
2017-10-13T04:53:49.877Z,10.00
2017-10-13T04:56:19.027Z,10.00
2017-10-13T04:58:47.403Z,10.00
2017-10-13T05:01:16.071Z,10.00
2017-10-13T05:03:44.471Z,10.00
2017-10-13T05:06:13.093Z,10.00
2017-10-13T05:08:42.251Z,9.90
2017-10-13T05:11:10.682Z,9.90
2017-10-13T05:13:39.054Z,9.90
2017-10-13T05:16:07.466Z,9.80
2017-10-13T05:18:35.840Z,9.80
2017-10-13T05:21:04.223Z,9.80
2017-10-13T05:23:32.675Z,9.70
2017-10-13T05:26:01.361Z,9.70
2017-10-13T05:28:29.738Z,9.70
2017-10-13T05:30:58.144Z,9.60
2017-10-13T05:33:26.531Z,9.70
2017-10-13T05:35:54.912Z,9.70
2017-10-13T05:38:23.314Z,9.70
2017-10-13T05:40:51.692Z,9.70
2017-10-13T05:43:20.122Z,9.80
2017-10-13T05:45:48.550Z,9.80
2017-10-13T05:48:16.923Z,9.80
2017-10-13T05:50:45.324Z,9.80
2017-10-13T05:53:14.498Z,9.90
2017-10-13T05:55:42.873Z,9.80
2017-10-13T05:58:13.294Z,9.80
2017-10-13T06:00:42.739Z,9.80
2017-10-13T06:03:12.049Z,9.80
2017-10-13T06:05:41.225Z,9.70
2017-10-13T06:08:10.637Z,9.80
2017-10-13T06:10:39.794Z,9.90
2017-10-13T06:13:08.175Z,9.80
2017-10-13T06:15:36.568Z,9.90
2017-10-13T06:18:04.942Z,10.10
2017-10-13T06:20:33.330Z,10.20
2017-10-13T06:23:01.734Z,10.20
2017-10-13T06:25:30.887Z,10.50
2017-10-13T06:27:59.267Z,10.50
2017-10-13T06:30:27.703Z,10.80
2017-10-13T06:32:56.099Z,10.90
2017-10-13T06:35:24.476Z,11.10
2017-10-13T06:37:52.905Z,11.30
2017-10-13T06:40:21.297Z,11.40
2017-10-13T06:42:50.453Z,12.60
2017-10-13T06:45:18.855Z,12.60
2017-10-13T06:47:47.259Z,13.80
2017-10-13T06:50:16.467Z,15.10
2017-10-13T06:52:44.890Z,15.10
2017-10-13T06:55:13.275Z,15.90
2017-10-13T06:57:42.056Z,16.70
2017-10-13T07:00:10.533Z,17.10
2017-10-13T07:02:38.931Z,16.80
2017-10-13T07:05:07.325Z,17.00
2017-10-13T07:07:36.520Z,16.70
2017-10-13T07:10:05.897Z,17.30
2017-10-13T07:12:34.319Z,17.30
2017-10-13T07:15:02.781Z,17.90
2017-10-13T07:17:31.984Z,17.40
2017-10-13T07:20:01.242Z,17.40
2017-10-13T07:22:29.668Z,17.40
2017-10-13T07:24:58.148Z,17.60
2017-10-13T07:27:27.321Z,17.40
2017-10-13T07:29:55.762Z,17.40
2017-10-13T07:32:24.179Z,17.40
2017-10-13T07:34:52.611Z,18.10
2017-10-13T07:37:21.516Z,18.80
2017-10-13T07:39:49.910Z,19.40
2017-10-13T07:42:18.310Z,19.70
2017-10-13T07:44:46.719Z,20.70
2017-10-13T07:47:15.100Z,21.90
2017-10-13T07:49:45.823Z,23.20
2017-10-13T07:52:14.256Z,23.10
2017-10-13T07:54:42.632Z,23.50
2017-10-13T07:57:11.050Z,23.80
2017-10-13T07:59:39.483Z,23.70
2017-10-13T08:02:07.870Z,23.40
2017-10-13T08:04:36.248Z,23.50
2017-10-13T08:07:04.668Z,24.30
2017-10-13T08:09:33.814Z,25.10
2017-10-13T08:12:02.196Z,25.10
2017-10-13T08:14:30.610Z,24.80
2017-10-13T08:16:59.068Z,25.40
2017-10-13T08:19:27.452Z,26.10
2017-10-13T08:21:55.898Z,26.70
2017-10-13T08:24:24.296Z,26.20
2017-10-13T08:26:52.689Z,26.20
2017-10-13T08:29:21.103Z,26.20
2017-10-13T08:31:49.485Z,25.80
2017-10-13T08:34:17.863Z,25.50
2017-10-13T08:36:47.047Z,25.00
2017-10-13T08:39:16.424Z,25.40
2017-10-13T08:41:44.840Z,25.30
2017-10-13T08:44:14.028Z,25.40
2017-10-13T08:46:42.406Z,25.40
2017-10-13T08:49:11.557Z,24.80
2017-10-13T08:51:40.841Z,24.80
2017-10-13T08:54:09.246Z,25.20
2017-10-13T08:56:37.628Z,25.60
2017-10-13T08:59:06.042Z,26.60
2017-10-13T09:01:35.212Z,26.40
2017-10-13T09:04:03.587Z,26.40
2017-10-13T09:06:32.020Z,26.70
2017-10-13T09:09:00.424Z,27.00
2017-10-13T09:11:29.175Z,28.00
2017-10-13T09:13:58.370Z,27.30
2017-10-13T09:16:27.546Z,27.60
2017-10-13T09:18:55.944Z,27.60
2017-10-13T09:21:25.142Z,26.70
2017-10-13T09:23:54.306Z,27.10
2017-10-13T09:26:22.744Z,27.10
2017-10-13T09:28:51.200Z,26.40
2017-10-13T09:31:19.604Z,27.00
2017-10-13T09:33:47.995Z,27.30
2017-10-13T09:36:16.443Z,27.90
2017-10-13T09:38:44.834Z,27.70
2017-10-13T09:41:13.310Z,27.00
2017-10-13T09:43:41.719Z,27.70
2017-10-13T09:46:10.096Z,27.50
2017-10-13T09:48:38.484Z,27.00
2017-10-13T09:51:06.915Z,26.40
2017-10-13T09:53:36.065Z,26.20
2017-10-13T09:56:04.445Z,26.20
2017-10-13T09:58:32.867Z,26.20
2017-10-13T10:01:02.041Z,26.60
2017-10-13T10:03:30.410Z,26.60
2017-10-13T10:05:58.839Z,27.50
2017-10-13T10:08:27.227Z,27.30
2017-10-13T10:10:55.621Z,26.60
2017-10-13T10:13:24.049Z,26.60
2017-10-13T10:15:53.413Z,26.80
2017-10-13T10:18:21.809Z,26.80
2017-10-13T10:20:50.232Z,28.00
2017-10-13T10:23:18.622Z,28.20
2017-10-13T10:25:47.006Z,28.20
2017-10-13T10:28:15.431Z,27.80
2017-10-13T10:30:43.817Z,29.20
2017-10-13T10:33:12.215Z,28.70
2017-10-13T10:35:41.414Z,28.20
2017-10-13T10:38:10.550Z,28.60
2017-10-13T10:40:38.926Z,28.60
2017-10-13T10:43:07.345Z,29.80
2017-10-13T10:45:35.739Z,29.90
2017-10-13T10:48:04.904Z,26.00
2017-10-13T10:50:33.315Z,25.90
2017-10-13T10:53:02.887Z,25.80
2017-10-13T10:55:31.270Z,25.80
2017-10-13T10:57:59.688Z,27.10
2017-10-13T11:00:28.072Z,26.90
2017-10-13T11:02:56.469Z,26.70
2017-10-13T11:05:24.879Z,27.10
2017-10-13T11:07:53.252Z,28.20
2017-10-13T11:10:21.630Z,28.60
2017-10-13T11:12:50.042Z,27.60
2017-10-13T11:15:19.207Z,28.10
2017-10-13T11:17:47.687Z,28.10
2017-10-13T11:20:16.117Z,28.20
2017-10-13T11:22:44.499Z,27.90
2017-10-13T11:25:12.935Z,28.40
2017-10-13T11:27:41.357Z,29.00
2017-10-13T11:30:09.736Z,29.20
2017-10-13T11:32:38.117Z,28.80
2017-10-13T11:35:06.527Z,28.30
2017-10-13T11:40:09.527Z,28.50
2017-10-13T11:42:37.908Z,27.30
2017-10-13T11:45:06.618Z,27.00
2017-10-13T11:47:35.038Z,27.10
2017-10-13T11:50:03.429Z,28.50
2017-10-13T11:52:31.829Z,28.70
2017-10-13T11:55:00.263Z,28.50
2017-10-13T11:57:29.407Z,26.40
2017-10-13T11:59:57.792Z,26.30
2017-10-13T12:02:26.372Z,25.90
2017-10-13T12:04:54.755Z,25.60
2017-10-13T12:07:23.144Z,24.60
2017-10-13T12:09:53.059Z,24.10
2017-10-13T12:12:21.438Z,24.10
2017-10-13T12:14:49.819Z,23.60
2017-10-13T12:17:18.227Z,24.30
2017-10-13T12:19:47.384Z,24.80
2017-10-13T12:22:16.555Z,25.50
2017-10-13T12:24:45.007Z,25.50
2017-10-13T12:27:14.156Z,26.10
2017-10-13T12:29:42.548Z,26.10
2017-10-13T12:32:11.105Z,25.80
2017-10-13T12:34:39.480Z,25.80
2017-10-13T12:37:07.940Z,25.60
2017-10-13T12:39:36.347Z,25.50
2017-10-13T12:42:04.732Z,25.30
2017-10-13T12:44:33.123Z,25.00
2017-10-13T12:47:01.564Z,24.70
2017-10-13T12:49:29.960Z,24.20
2017-10-13T12:51:58.355Z,23.70
2017-10-13T12:54:26.797Z,23.90
2017-10-13T12:56:55.303Z,23.50
2017-10-13T12:59:23.683Z,23.30
2017-10-13T13:01:52.102Z,23.10
2017-10-13T13:04:21.246Z,23.40
2017-10-13T13:06:49.627Z,23.40
2017-10-13T13:09:18.050Z,23.90
2017-10-13T13:11:46.430Z,24.20
2017-10-13T13:14:14.804Z,24.40
2017-10-13T13:16:43.251Z,24.40
2017-10-13T13:19:11.652Z,24.70
2017-10-13T13:21:40.046Z,24.80
2017-10-13T13:24:08.450Z,24.30
2017-10-13T13:26:36.827Z,24.50
2017-10-13T13:29:05.212Z,24.90
2017-10-13T13:31:33.640Z,25.40
2017-10-13T13:34:02.128Z,25.00
2017-10-13T13:36:30.513Z,24.40
2017-10-13T13:38:58.928Z,24.40
2017-10-13T13:41:27.308Z,23.80
2017-10-13T13:43:55.694Z,23.30
2017-10-13T13:46:24.106Z,23.30
2017-10-13T13:48:52.489Z,23.20
2017-10-13T13:51:20.878Z,23.00
2017-10-13T13:53:49.303Z,22.70
2017-10-13T13:56:17.680Z,22.70
2017-10-13T13:58:46.068Z,22.30
2017-10-13T14:01:14.624Z,22.50
2017-10-13T14:03:43.771Z,22.10
2017-10-13T14:06:12.187Z,22.00
2017-10-13T14:08:41.372Z,21.50
2017-10-13T14:11:09.755Z,21.50
2017-10-13T14:13:38.149Z,21.30
2017-10-13T14:16:06.885Z,21.00
2017-10-13T14:18:35.266Z,20.90
2017-10-13T14:21:03.645Z,20.80
2017-10-13T14:23:32.048Z,20.60
2017-10-13T14:26:00.449Z,20.60
2017-10-13T14:28:29.599Z,20.70
2017-10-13T14:30:58.003Z,20.70
2017-10-13T14:33:26.387Z,20.60
2017-10-13T14:35:54.763Z,20.50
2017-10-13T14:38:23.216Z,20.40
2017-10-13T14:40:51.686Z,20.50
2017-10-13T14:43:20.150Z,20.50
2017-10-13T14:45:48.575Z,20.60
2017-10-13T14:48:16.978Z,20.40
2017-10-13T14:50:46.177Z,20.50
2017-10-13T14:53:15.387Z,20.40
2017-10-13T14:55:43.791Z,20.40
2017-10-13T14:58:12.176Z,20.40
2017-10-13T15:00:40.654Z,20.30
2017-10-13T15:03:09.065Z,20.40
2017-10-13T15:05:37.463Z,20.60
2017-10-13T15:08:06.662Z,20.60
2017-10-13T15:10:35.864Z,20.50
2017-10-13T15:13:05.027Z,20.40
2017-10-13T15:15:33.445Z,20.40
2017-10-13T15:18:01.830Z,20.40
2017-10-13T15:20:30.219Z,20.40
2017-10-13T15:22:58.649Z,20.50
2017-10-13T15:25:32.588Z,20.40
2017-10-13T15:28:07.416Z,20.30
2017-10-13T15:30:41.175Z,20.30
2017-10-13T15:33:15.039Z,20.20
2017-10-13T15:35:48.875Z,20.20
2017-10-13T15:41:23.987Z,19.90
2017-10-13T15:43:58.769Z,19.60
2017-10-13T15:46:32.730Z,19.60
2017-10-13T15:49:07.247Z,19.40
2017-10-13T15:51:41.825Z,19.20
2017-10-13T15:54:10.261Z,19.10
2017-10-13T15:56:39.995Z,18.90
2017-10-13T15:59:08.451Z,18.80
2017-10-13T16:01:37.796Z,18.40
2017-10-13T16:04:06.175Z,18.40
2017-10-13T16:06:34.553Z,18.30
2017-10-13T16:09:03.140Z,18.10
2017-10-13T16:11:31.518Z,18.00
2017-10-13T16:14:00.175Z,17.80
2017-10-13T16:16:28.888Z,17.50
2017-10-13T16:21:31.900Z,17.30
2017-10-13T16:24:01.092Z,17.10
2017-10-13T16:26:29.491Z,17.00
2017-10-13T16:28:58.280Z,16.80
2017-10-13T16:31:27.437Z,16.50
2017-10-13T16:33:55.815Z,16.50
2017-10-13T16:36:24.338Z,16.30
2017-10-13T16:38:52.726Z,16.20
2017-10-13T16:41:21.877Z,16.00
2017-10-13T16:43:50.688Z,15.90
2017-10-13T16:46:19.112Z,15.90
2017-10-13T16:48:48.313Z,15.70
2017-10-13T16:51:16.886Z,15.60
2017-10-13T16:53:45.360Z,15.50
2017-10-13T16:56:14.565Z,15.40
2017-10-13T16:58:44.021Z,15.30
2017-10-13T17:01:15.549Z,15.30
2017-10-13T17:03:47.298Z,15.20
2017-10-13T17:06:17.974Z,15.10
2017-10-13T17:08:48.338Z,15.00
2017-10-13T17:11:19.063Z,14.80
2017-10-13T17:13:49.103Z,14.80
2017-10-13T17:16:19.052Z,14.80
2017-10-13T17:18:49.372Z,14.70
2017-10-13T17:21:20.205Z,14.60
2017-10-13T17:23:51.487Z,14.50
2017-10-13T17:26:21.866Z,14.40
2017-10-13T17:28:52.855Z,14.40
2017-10-13T17:31:23.675Z,14.40
2017-10-13T17:33:54.200Z,14.40
2017-10-13T17:36:24.623Z,14.40
2017-10-13T17:38:54.703Z,14.30
2017-10-13T17:41:25.488Z,14.20
2017-10-13T17:43:55.208Z,14.10
2017-10-13T17:46:25.713Z,14.00
2017-10-13T17:48:55.495Z,14.00
2017-10-13T17:51:25.416Z,14.10
2017-10-13T17:53:55.561Z,14.00
2017-10-13T17:56:26.552Z,13.90
2017-10-13T17:58:56.359Z,13.80
2017-10-13T18:01:26.218Z,13.70
2017-10-13T18:03:56.242Z,13.60
2017-10-13T18:06:26.525Z,13.50
2017-10-13T18:08:56.519Z,13.40
2017-10-13T18:11:27.333Z,13.20
2017-10-13T18:13:57.059Z,13.20
2017-10-13T18:16:27.484Z,13.10
2017-10-13T18:18:57.379Z,13.10
2017-10-13T18:21:27.472Z,13.10
2017-10-13T18:23:56.930Z,13.10
2017-10-13T18:26:27.139Z,13.20
2017-10-13T18:28:57.336Z,13.20
2017-10-13T18:31:27.563Z,13.30
2017-10-13T18:33:57.819Z,13.20
2017-10-13T18:36:28.029Z,13.20
2017-10-13T18:38:58.175Z,13.20
2017-10-13T18:41:28.034Z,13.20
2017-10-13T18:43:58.087Z,13.10
2017-10-13T18:46:28.223Z,13.00
2017-10-13T18:48:58.291Z,13.00
2017-10-13T18:51:28.396Z,13.00
2017-10-13T18:53:58.000Z,13.00
2017-10-13T18:56:26.683Z,12.90
2017-10-13T18:58:56.122Z,12.70
2017-10-13T19:01:24.577Z,12.70
2017-10-13T19:03:53.213Z,12.70
2017-10-13T19:06:22.071Z,12.60
2017-10-13T19:08:51.233Z,12.60
2017-10-13T19:11:20.331Z,12.60
2017-10-13T19:13:48.995Z,12.40
2017-10-13T19:16:17.491Z,12.30
2017-10-13T19:18:45.918Z,12.30
2017-10-13T19:21:15.419Z,12.20
2017-10-13T19:23:44.752Z,12.20
2017-10-13T19:26:13.206Z,12.10
2017-10-13T19:28:42.402Z,12.00
2017-10-13T19:31:10.791Z,12.00
2017-10-13T19:33:40.080Z,12.00
2017-10-13T19:36:09.231Z,12.00
2017-10-13T19:38:37.656Z,12.00
2017-10-13T19:41:06.845Z,11.90
2017-10-13T19:43:35.995Z,11.90
2017-10-13T19:46:04.416Z,11.90
2017-10-13T19:48:32.807Z,11.90
2017-10-13T19:51:01.213Z,11.90
2017-10-13T19:53:29.785Z,11.70
2017-10-13T19:55:58.168Z,11.70
2017-10-13T19:58:27.108Z,11.60
2017-10-13T20:00:55.523Z,11.40
2017-10-13T20:03:24.669Z,11.30
2017-10-13T20:05:53.089Z,11.30
2017-10-13T20:08:22.259Z,10.90
2017-10-13T20:10:50.937Z,10.90
2017-10-13T20:13:19.334Z,10.80
2017-10-13T20:15:47.783Z,10.80
2017-10-13T20:18:16.200Z,11.00
2017-10-13T20:20:44.595Z,11.20
2017-10-13T20:23:13.790Z,11.20
2017-10-13T20:25:42.940Z,11.20
2017-10-13T20:28:11.622Z,11.20
2017-10-13T20:30:39.995Z,11.10
2017-10-13T20:33:08.387Z,11.10
2017-10-13T20:35:36.816Z,11.10
2017-10-13T20:38:05.966Z,11.10
2017-10-13T20:40:34.452Z,11.10
2017-10-13T20:43:02.846Z,11.00
2017-10-13T20:45:31.258Z,11.00
2017-10-13T20:47:59.655Z,11.00
2017-10-13T20:50:28.043Z,10.90
2017-10-13T20:52:56.839Z,10.80
2017-10-13T20:55:25.238Z,10.70
2017-10-13T20:57:53.608Z,10.70
2017-10-13T21:00:22.007Z,10.80
2017-10-13T21:02:50.391Z,10.80
2017-10-13T21:05:18.802Z,10.80
2017-10-13T21:07:47.197Z,10.80
2017-10-13T21:10:15.896Z,10.80
2017-10-13T21:12:44.275Z,10.70
2017-10-13T21:15:12.796Z,10.70
2017-10-13T21:17:41.196Z,10.60
2017-10-13T21:20:10.700Z,10.70
2017-10-13T21:22:39.939Z,10.70
2017-10-13T21:25:08.829Z,10.70
2017-10-13T21:27:38.538Z,10.70
2017-10-13T21:30:07.434Z,10.70
2017-10-13T21:32:36.116Z,10.70
2017-10-13T21:35:04.852Z,10.60
2017-10-13T21:37:34.624Z,10.60
2017-10-13T21:40:05.932Z,10.60
2017-10-13T21:42:34.382Z,10.50
2017-10-13T21:45:03.628Z,10.50
2017-10-13T21:47:32.161Z,10.50
2017-10-13T21:50:01.732Z,10.40
2017-10-13T21:52:30.821Z,10.40
2017-10-13T21:54:59.711Z,10.40
2017-10-13T21:57:28.648Z,10.40
2017-10-13T21:59:57.504Z,10.40
2017-10-13T22:02:27.072Z,10.40
2017-10-13T22:05:01.635Z,10.40
2017-10-13T22:07:30.496Z,10.40
2017-10-13T22:09:58.907Z,10.40
2017-10-13T22:12:27.312Z,10.40
2017-10-13T22:14:56.489Z,10.30
2017-10-13T22:17:24.997Z,10.30
2017-10-13T22:19:54.147Z,10.30
2017-10-13T22:22:22.524Z,10.20
2017-10-13T22:24:50.927Z,10.20
2017-10-13T22:27:19.310Z,10.20
2017-10-13T22:29:49.340Z,10.10
2017-10-13T22:32:17.986Z,10.00
2017-10-13T22:34:46.877Z,10.00
2017-10-13T22:37:16.284Z,10.10
2017-10-13T22:39:45.369Z,10.00
2017-10-13T22:42:14.472Z,9.90
2017-10-13T22:44:43.226Z,9.90
2017-10-13T22:47:11.698Z,9.90
2017-10-13T22:49:40.127Z,9.90
2017-10-13T22:52:08.707Z,9.90
2017-10-13T22:54:37.602Z,9.80
2017-10-13T22:57:06.415Z,9.80
2017-10-13T22:59:34.812Z,9.80
2017-10-13T23:02:03.982Z,9.80
2017-10-13T23:04:33.126Z,9.80
2017-10-13T23:07:01.710Z,9.80
2017-10-13T23:09:30.163Z,9.80
2017-10-13T23:11:59.318Z,9.70
2017-10-13T23:14:27.750Z,9.70
2017-10-13T23:16:56.117Z,9.70
2017-10-13T23:19:25.337Z,9.60
2017-10-13T23:21:53.711Z,9.50
2017-10-13T23:24:22.091Z,9.60
2017-10-13T23:26:50.505Z,9.60
2017-10-13T23:29:18.896Z,9.60
2017-10-13T23:31:47.274Z,9.60
2017-10-13T23:34:15.696Z,9.60
2017-10-13T23:36:44.075Z,9.50
2017-10-13T23:39:12.457Z,9.50
2017-10-13T23:41:40.880Z,9.50
2017-10-13T23:44:09.250Z,9.40
2017-10-13T23:46:37.623Z,9.40
2017-10-13T23:49:06.034Z,9.50
2017-10-13T23:51:34.406Z,9.40
2017-10-13T23:54:03.543Z,9.40
2017-10-13T23:56:31.949Z,9.40
2017-10-13T23:59:00.326Z,9.40
